createdAt,value
2023-03-22T00:00:26.000Z,1003.525776
2023-03-22T00:00:56.000Z,1003.525776
2023-03-22T00:01:23.000Z,1003.525776
2023-03-22T00:01:46.000Z,1003.627368
2023-03-22T00:02:09.000Z,1003.627368
2023-03-22T00:02:42.000Z,1003.525776
2023-03-22T00:03:12.000Z,1003.525776
2023-03-22T00:03:42.000Z,1003.424184
2023-03-22T00:04:17.000Z,1003.424184
2023-03-22T00:04:38.000Z,1003.525776
2023-03-22T00:05:02.000Z,1003.525776
2023-03-22T00:05:36.000Z,1003.525776
2023-03-22T00:06:07.000Z,1003.424184
2023-03-22T00:06:41.000Z,1003.525776
2023-03-22T00:07:11.000Z,1003.525776
2023-03-22T00:07:42.000Z,1003.424184
2023-03-22T00:08:26.000Z,1003.424184
2023-03-22T00:08:45.000Z,1003.525776
2023-03-22T00:09:01.000Z,1003.525776
2023-03-22T00:09:33.000Z,1003.525776
2023-03-22T00:09:58.000Z,1003.322592
2023-03-22T00:10:23.000Z,1003.322592
2023-03-22T00:10:51.000Z,1003.322592
2023-03-22T00:11:14.000Z,1003.322592
2023-03-22T00:11:41.000Z,1003.525776
2023-03-22T00:12:17.000Z,1003.525776
2023-03-22T00:12:39.000Z,1003.322592
2023-03-22T00:13:02.000Z,1003.322592
2023-03-22T00:13:37.000Z,1003.322592
2023-03-22T00:14:07.000Z,1003.221
2023-03-22T00:14:42.000Z,1003.424184
2023-03-22T00:15:12.000Z,1003.424184
2023-03-22T00:15:42.000Z,1003.322592
2023-03-22T00:16:17.000Z,1003.322592
2023-03-22T00:16:38.000Z,1003.627368
2023-03-22T00:17:02.000Z,1003.627368
2023-03-22T00:17:37.000Z,1003.627368
2023-03-22T00:18:07.000Z,1003.424184
2023-03-22T00:18:41.000Z,1003.525776
2023-03-22T00:19:12.000Z,1003.525776
2023-03-22T00:19:37.000Z,1003.525776
2023-03-22T00:20:03.000Z,1003.525776
2023-03-22T00:20:31.000Z,1003.525776
2023-03-22T00:21:07.000Z,1003.525776
2023-03-22T00:21:46.000Z,1003.322592
2023-03-22T00:22:09.000Z,1003.322592
2023-03-22T00:22:42.000Z,1003.322592
2023-03-22T00:23:12.000Z,1003.322592
2023-03-22T00:23:42.000Z,1003.424184
2023-03-22T00:24:17.000Z,1003.424184
2023-03-22T00:24:38.000Z,1003.424184
2023-03-22T00:25:02.000Z,1003.424184
2023-03-22T00:25:37.000Z,1003.424184
2023-03-22T00:26:07.000Z,1003.424184
2023-03-22T00:26:43.000Z,1003.424184
2023-03-22T00:27:12.000Z,1003.424184
2023-03-22T00:27:42.000Z,1003.424184
2023-03-22T00:28:17.000Z,1003.424184
2023-03-22T00:28:38.000Z,1003.322592
2023-03-22T00:29:02.000Z,1003.322592
2023-03-22T00:29:37.000Z,1003.322592
2023-03-22T00:30:07.000Z,1003.322592
2023-03-22T00:30:42.000Z,1003.627368
2023-03-22T00:31:12.000Z,1003.627368
2023-03-22T00:31:42.000Z,1003.424184
2023-03-22T00:32:17.000Z,1003.424184
2023-03-22T00:32:38.000Z,1003.525776
2023-03-22T00:33:02.000Z,1003.525776
2023-03-22T00:33:46.000Z,1003.525776
2023-03-22T00:34:10.000Z,1003.525776
2023-03-22T00:34:37.000Z,1003.221
2023-03-22T00:34:53.000Z,1003.221
2023-03-22T00:35:36.000Z,1003.221
2023-03-22T00:36:03.000Z,1003.322592
2023-03-22T00:36:29.000Z,1003.322592
2023-03-22T00:36:56.000Z,1003.119408
2023-03-22T00:37:23.000Z,1003.119408
2023-03-22T00:37:52.000Z,1003.322592
2023-03-22T00:38:22.000Z,1003.322592
2023-03-22T00:38:57.000Z,1003.221
2023-03-22T00:39:27.000Z,1003.221
2023-03-22T00:39:42.000Z,1003.119408
2023-03-22T00:40:17.000Z,1003.119408
2023-03-22T00:40:38.000Z,1003.322592
2023-03-22T00:41:02.000Z,1003.322592
2023-03-22T00:41:37.000Z,1003.322592
2023-03-22T00:42:07.000Z,1003.119408
2023-03-22T00:42:42.000Z,1003.322592
2023-03-22T00:43:12.000Z,1003.322592
2023-03-22T00:43:51.000Z,1003.221
2023-03-22T00:44:16.000Z,1003.221
2023-03-22T00:44:38.000Z,1003.424184
2023-03-22T00:45:02.000Z,1003.424184
2023-03-22T00:45:37.000Z,1003.424184
2023-03-22T00:46:07.000Z,1003.119408
2023-03-22T00:46:42.000Z,1003.119408
2023-03-22T00:47:12.000Z,1003.119408
2023-03-22T00:47:42.000Z,1003.221
2023-03-22T00:48:18.000Z,1003.221
2023-03-22T00:48:38.000Z,1003.424184
2023-03-22T00:49:02.000Z,1003.424184
2023-03-22T00:49:37.000Z,1003.424184
2023-03-22T00:50:07.000Z,1003.221
2023-03-22T00:50:43.000Z,1003.221
2023-03-22T00:51:12.000Z,1003.221
2023-03-22T00:51:42.000Z,1003.221
2023-03-22T00:52:17.000Z,1003.221
2023-03-22T00:52:37.000Z,1003.221
2023-03-22T00:53:02.000Z,1003.221
2023-03-22T00:53:37.000Z,1003.221
2023-03-22T00:54:07.000Z,1003.017816
2023-03-22T00:54:42.000Z,1003.221
2023-03-22T00:55:12.000Z,1003.221
2023-03-22T00:55:42.000Z,1003.221
2023-03-22T00:56:17.000Z,1003.221
2023-03-22T00:56:48.000Z,1003.221
2023-03-22T00:57:22.000Z,1003.221
2023-03-22T00:57:49.000Z,1003.119408
2023-03-22T00:58:07.000Z,1003.119408
2023-03-22T00:58:42.000Z,1003.221
2023-03-22T00:59:12.000Z,1003.221
2023-03-22T00:59:42.000Z,1003.119408
2023-03-22T01:00:17.000Z,1003.119408
2023-03-22T01:00:38.000Z,1003.119408
2023-03-22T01:01:02.000Z,1003.119408
2023-03-22T01:01:37.000Z,1003.119408
2023-03-22T01:02:07.000Z,1003.017816
2023-03-22T01:02:41.000Z,1003.221
2023-03-22T01:03:12.000Z,1003.221
2023-03-22T01:03:42.000Z,1003.119408
2023-03-22T01:04:17.000Z,1003.119408
2023-03-22T01:04:38.000Z,1003.119408
2023-03-22T01:05:02.000Z,1003.119408
2023-03-22T01:05:37.000Z,1003.119408
2023-03-22T01:06:07.000Z,1003.017816
2023-03-22T01:06:42.000Z,1002.814632
2023-03-22T01:07:12.000Z,1002.814632
2023-03-22T01:07:42.000Z,1002.916224
2023-03-22T01:08:17.000Z,1002.916224
2023-03-22T01:08:38.000Z,1002.916224
2023-03-22T01:09:06.000Z,1002.916224
2023-03-22T01:09:37.000Z,1002.916224
2023-03-22T01:10:10.000Z,1003.017816
2023-03-22T01:10:42.000Z,1002.814632
2023-03-22T01:11:12.000Z,1002.814632
2023-03-22T01:11:42.000Z,1002.7130400000001
2023-03-22T01:12:29.000Z,1002.7130400000001
2023-03-22T01:12:47.000Z,1002.916224
2023-03-22T01:13:22.000Z,1002.916224
2023-03-22T01:13:49.000Z,1002.916224
2023-03-22T01:14:22.000Z,1002.916224
2023-03-22T01:14:56.000Z,1002.7130400000001
2023-03-22T01:15:27.000Z,1002.7130400000001
2023-03-22T01:15:57.000Z,1002.916224
2023-03-22T01:16:31.000Z,1002.916224
2023-03-22T01:17:01.000Z,1002.916224
2023-03-22T01:17:36.000Z,1002.916224
2023-03-22T01:18:07.000Z,1002.814632
2023-03-22T01:18:42.000Z,1002.916224
2023-03-22T01:19:12.000Z,1002.916224
2023-03-22T01:19:42.000Z,1002.7130400000001
2023-03-22T01:20:17.000Z,1002.7130400000001
2023-03-22T01:20:38.000Z,1002.645312
2023-03-22T01:21:01.000Z,1002.645312
2023-03-22T01:21:37.000Z,1002.645312
2023-03-22T01:22:07.000Z,1002.645312
2023-03-22T01:22:42.000Z,1002.645312
2023-03-22T01:23:12.000Z,1002.645312
2023-03-22T01:23:42.000Z,1002.7130400000001
2023-03-22T01:24:17.000Z,1002.7130400000001
2023-03-22T01:24:38.000Z,1002.7130400000001
2023-03-22T01:25:02.000Z,1002.7130400000001
2023-03-22T01:25:37.000Z,1002.7130400000001
2023-03-22T01:26:07.000Z,1002.7130400000001
2023-03-22T01:26:41.000Z,1002.54372
2023-03-22T01:27:09.000Z,1002.54372
2023-03-22T01:27:27.000Z,1002.54372
2023-03-22T01:27:57.000Z,1002.814632
2023-03-22T01:28:17.000Z,1002.814632
2023-03-22T01:28:41.000Z,1002.645312
2023-03-22T01:29:02.000Z,1002.645312
2023-03-22T01:29:36.000Z,1002.645312
2023-03-22T01:30:06.000Z,1002.814632
2023-03-22T01:30:42.000Z,1002.645312
2023-03-22T01:31:12.000Z,1002.645312
2023-03-22T01:31:41.000Z,1002.645312
2023-03-22T01:32:17.000Z,1002.645312
2023-03-22T01:32:38.000Z,1003.119408
2023-03-22T01:33:11.000Z,1003.119408
2023-03-22T01:33:38.000Z,1003.119408
2023-03-22T01:34:05.000Z,1002.7130400000001
2023-03-22T01:34:31.000Z,1002.7130400000001
2023-03-22T01:35:05.000Z,1002.645312
2023-03-22T01:35:28.000Z,1002.645312
2023-03-22T01:35:51.000Z,1002.7130400000001
2023-03-22T01:36:16.000Z,1002.7130400000001
2023-03-22T01:36:41.000Z,1002.7130400000001
2023-03-22T01:37:05.000Z,1002.7130400000001
2023-03-22T01:37:36.000Z,1002.7130400000001
2023-03-22T01:38:07.000Z,1002.645312
2023-03-22T01:38:42.000Z,1002.814632
2023-03-22T01:39:12.000Z,1002.814632
2023-03-22T01:39:42.000Z,1002.645312
2023-03-22T01:40:16.000Z,1002.645312
2023-03-22T01:40:39.000Z,1002.7130400000001
2023-03-22T01:41:02.000Z,1002.7130400000001
2023-03-22T01:41:36.000Z,1002.7130400000001
2023-03-22T01:42:07.000Z,1002.645312
2023-03-22T01:42:42.000Z,1002.814632
2023-03-22T01:43:09.000Z,1002.814632
2023-03-22T01:43:27.000Z,1002.814632
2023-03-22T01:43:57.000Z,1002.54372
2023-03-22T01:44:31.000Z,1002.54372
2023-03-22T01:45:02.000Z,1002.814632
2023-03-22T01:45:37.000Z,1002.814632
2023-03-22T01:46:07.000Z,1002.645312
2023-03-22T01:46:42.000Z,1002.645312
2023-03-22T01:47:12.000Z,1002.645312
2023-03-22T01:47:42.000Z,1002.54372
2023-03-22T01:48:17.000Z,1002.54372
2023-03-22T01:48:38.000Z,1002.645312
2023-03-22T01:49:11.000Z,1002.645312
2023-03-22T01:49:38.000Z,1002.645312
2023-03-22T01:50:07.000Z,1002.54372
2023-03-22T01:50:42.000Z,1002.7130400000001
2023-03-22T01:51:12.000Z,1002.7130400000001
2023-03-22T01:51:42.000Z,1002.54372
2023-03-22T01:52:16.000Z,1002.54372
2023-03-22T01:52:38.000Z,1002.54372
2023-03-22T01:53:02.000Z,1002.54372
2023-03-22T01:53:36.000Z,1002.54372
2023-03-22T01:54:07.000Z,1002.645312
2023-03-22T01:54:42.000Z,1002.442128
2023-03-22T01:55:12.000Z,1002.442128
2023-03-22T01:55:51.000Z,1002.54372
2023-03-22T01:56:17.000Z,1002.54372
2023-03-22T01:56:38.000Z,1002.442128
2023-03-22T01:57:01.000Z,1002.442128
2023-03-22T01:57:36.000Z,1002.442128
2023-03-22T01:58:06.000Z,1002.54372
2023-03-22T01:58:41.000Z,1002.442128
2023-03-22T01:59:11.000Z,1002.442128
2023-03-22T01:59:42.000Z,1002.645312
2023-03-22T02:00:17.000Z,1002.645312
2023-03-22T02:00:38.000Z,1002.2389440000001
2023-03-22T02:01:02.000Z,1002.2389440000001
2023-03-22T02:01:37.000Z,1002.2389440000001
2023-03-22T02:02:06.000Z,1002.54372
2023-03-22T02:02:42.000Z,1002.442128
2023-03-22T02:03:12.000Z,1002.442128
2023-03-22T02:03:42.000Z,1002.54372
2023-03-22T02:04:17.000Z,1002.54372
2023-03-22T02:04:38.000Z,1002.442128
2023-03-22T02:05:02.000Z,1002.442128
2023-03-22T02:05:37.000Z,1002.442128
2023-03-22T02:06:07.000Z,1002.442128
2023-03-22T02:06:42.000Z,1002.442128
2023-03-22T02:07:12.000Z,1002.442128
2023-03-22T02:07:43.000Z,1002.442128
2023-03-22T02:08:16.000Z,1002.442128
2023-03-22T02:08:39.000Z,1002.54372
2023-03-22T02:09:06.000Z,1002.54372
2023-03-22T02:09:36.000Z,1002.54372
2023-03-22T02:10:16.000Z,1002.442128
2023-03-22T02:10:43.000Z,1002.442128
2023-03-22T02:11:13.000Z,1002.442128
2023-03-22T02:11:37.000Z,1002.3405359999999
2023-03-22T02:12:03.000Z,1002.3405359999999
2023-03-22T02:12:28.000Z,1002.3405359999999
2023-03-22T02:12:56.000Z,1002.3405359999999
2023-03-22T02:13:23.000Z,1002.3405359999999
2023-03-22T02:13:46.000Z,1002.2389440000001
2023-03-22T02:14:11.000Z,1002.2389440000001
2023-03-22T02:14:37.000Z,1002.137352
2023-03-22T02:14:53.000Z,1002.137352
2023-03-22T02:15:12.000Z,1002.137352
2023-03-22T02:15:42.000Z,1002.137352
2023-03-22T02:16:17.000Z,1002.137352
2023-03-22T02:16:38.000Z,1002.2389440000001
2023-03-22T02:17:02.000Z,1002.2389440000001
2023-03-22T02:17:37.000Z,1002.2389440000001
2023-03-22T02:18:07.000Z,1002.2389440000001
2023-03-22T02:18:42.000Z,1002.137352
2023-03-22T02:19:12.000Z,1002.137352
2023-03-22T02:19:42.000Z,1002.137352
2023-03-22T02:20:17.000Z,1002.137352
2023-03-22T02:20:38.000Z,1002.03576
2023-03-22T02:21:02.000Z,1002.03576
2023-03-22T02:21:37.000Z,1002.03576
2023-03-22T02:22:07.000Z,1002.137352
2023-03-22T02:22:42.000Z,1001.934168
2023-03-22T02:23:12.000Z,1001.934168
2023-03-22T02:23:42.000Z,1002.137352
2023-03-22T02:24:17.000Z,1002.137352
2023-03-22T02:24:39.000Z,1002.137352
2023-03-22T02:25:02.000Z,1002.137352
2023-03-22T02:25:37.000Z,1002.137352
2023-03-22T02:26:07.000Z,1002.442128
2023-03-22T02:26:41.000Z,1002.3405359999999
2023-03-22T02:27:12.000Z,1002.3405359999999
2023-03-22T02:27:37.000Z,1002.137352
2023-03-22T02:28:03.000Z,1002.137352
2023-03-22T02:28:31.000Z,1002.137352
2023-03-22T02:29:07.000Z,1002.137352
2023-03-22T02:29:46.000Z,1002.03576
2023-03-22T02:30:09.000Z,1002.03576
2023-03-22T02:30:37.000Z,1002.03576
2023-03-22T02:31:11.000Z,1002.03576
2023-03-22T02:31:37.000Z,1002.03576
2023-03-22T02:32:03.000Z,1002.03576
2023-03-22T02:32:28.000Z,1002.03576
2023-03-22T02:32:56.000Z,1002.03576
2023-03-22T02:33:23.000Z,1002.03576
2023-03-22T02:33:46.000Z,1002.2389440000001
2023-03-22T02:34:05.000Z,1002.2389440000001
2023-03-22T02:34:22.000Z,1002.2389440000001
2023-03-22T02:34:56.000Z,1001.934168
2023-03-22T02:35:27.000Z,1001.934168
2023-03-22T02:35:57.000Z,1002.03576
2023-03-22T02:36:32.000Z,1002.03576
2023-03-22T02:37:02.000Z,1001.934168
2023-03-22T02:37:37.000Z,1001.934168
2023-03-22T02:38:07.000Z,1002.137352
2023-03-22T02:38:42.000Z,1001.934168
2023-03-22T02:39:12.000Z,1001.934168
2023-03-22T02:39:43.000Z,1002.137352
2023-03-22T02:40:17.000Z,1002.137352
2023-03-22T02:40:43.000Z,1001.934168
2023-03-22T02:41:06.000Z,1001.934168
2023-03-22T02:41:46.000Z,1001.934168
2023-03-22T02:42:09.000Z,1001.934168
2023-03-22T02:42:37.000Z,1001.934168
2023-03-22T02:43:12.000Z,1001.934168
2023-03-22T02:43:42.000Z,1002.2389440000001
2023-03-22T02:44:17.000Z,1002.2389440000001
2023-03-22T02:44:38.000Z,1002.03576
2023-03-22T02:45:02.000Z,1002.03576
2023-03-22T02:45:37.000Z,1002.03576
2023-03-22T02:46:07.000Z,1001.934168
2023-03-22T02:46:42.000Z,1002.03576
2023-03-22T02:47:12.000Z,1002.03576
2023-03-22T02:47:42.000Z,1002.03576
2023-03-22T02:48:17.000Z,1002.03576
2023-03-22T02:48:38.000Z,1001.832576
2023-03-22T02:49:06.000Z,1001.832576
2023-03-22T02:49:37.000Z,1001.832576
2023-03-22T02:50:07.000Z,1002.137352
2023-03-22T02:50:42.000Z,1002.137352
2023-03-22T02:51:12.000Z,1002.137352
2023-03-22T02:51:43.000Z,1002.03576
2023-03-22T02:52:17.000Z,1002.03576
2023-03-22T02:52:38.000Z,1002.03576
2023-03-22T02:53:02.000Z,1002.03576
2023-03-22T02:53:37.000Z,1002.03576
2023-03-22T02:54:07.000Z,1001.934168
2023-03-22T02:54:42.000Z,1001.934168
2023-03-22T02:55:09.000Z,1001.934168
2023-03-22T02:55:36.000Z,1001.934168
2023-03-22T02:56:03.000Z,1001.6293919999999
2023-03-22T02:56:29.000Z,1001.6293919999999
2023-03-22T02:56:56.000Z,1001.7309839999999
2023-03-22T02:57:23.000Z,1001.7309839999999
2023-03-22T02:57:46.000Z,1001.934168
2023-03-22T02:58:09.000Z,1001.934168
2023-03-22T02:58:37.000Z,1001.7309839999999
2023-03-22T02:58:53.000Z,1001.7309839999999
2023-03-22T02:59:11.000Z,1001.7309839999999
2023-03-22T02:59:37.000Z,1001.832576
2023-03-22T03:00:03.000Z,1001.832576
2023-03-22T03:00:29.000Z,1001.832576
2023-03-22T03:00:56.000Z,1001.7309839999999
2023-03-22T03:01:23.000Z,1001.7309839999999
2023-03-22T03:01:46.000Z,1001.6293919999999
2023-03-22T03:02:07.000Z,1001.6293919999999
2023-03-22T03:02:42.000Z,1001.7309839999999
2023-03-22T03:03:12.000Z,1001.7309839999999
2023-03-22T03:03:42.000Z,1001.5278
2023-03-22T03:04:17.000Z,1001.5278
2023-03-22T03:04:38.000Z,1001.6293919999999
2023-03-22T03:05:02.000Z,1001.6293919999999
2023-03-22T03:05:37.000Z,1001.6293919999999
2023-03-22T03:06:07.000Z,1001.6293919999999
2023-03-22T03:06:42.000Z,1001.934168
2023-03-22T03:07:12.000Z,1001.934168
2023-03-22T03:07:43.000Z,1001.832576
2023-03-22T03:08:17.000Z,1001.832576
2023-03-22T03:08:39.000Z,1001.5278
2023-03-22T03:09:07.000Z,1001.5278
2023-03-22T03:09:46.000Z,1001.5278
2023-03-22T03:10:09.000Z,1001.5278
2023-03-22T03:10:44.000Z,1001.832576
2023-03-22T03:11:11.000Z,1001.832576
2023-03-22T03:11:42.000Z,1001.934168
2023-03-22T03:12:17.000Z,1001.934168
2023-03-22T03:12:38.000Z,1001.6293919999999
2023-03-22T03:13:02.000Z,1001.6293919999999
2023-03-22T03:13:37.000Z,1001.6293919999999
2023-03-22T17:02:53.000Z,999.4282320000001
2023-03-22T17:03:27.000Z,999.4282320000001
2023-03-22T17:03:57.000Z,999.4282320000001
2023-03-22T17:04:32.000Z,999.4282320000001
2023-03-22T17:05:02.000Z,999.4282320000001
2023-03-22T17:05:47.000Z,999.4282320000001
2023-03-22T17:06:09.000Z,999.4282320000001
2023-03-22T17:06:36.000Z,999.4282320000001
2023-03-22T17:07:12.000Z,999.4282320000001
2023-03-22T17:07:42.000Z,999.4282320000001
2023-03-22T17:08:17.000Z,999.4282320000001
2023-03-22T17:08:38.000Z,999.225048
2023-03-22T17:09:02.000Z,999.225048
2023-03-22T17:09:37.000Z,999.225048
2023-03-22T17:10:07.000Z,999.4282320000001
2023-03-22T17:10:37.000Z,999.4282320000001
2023-03-22T17:11:12.000Z,999.123456
2023-03-22T17:11:42.000Z,999.4282320000001
2023-03-22T17:12:17.000Z,999.4282320000001
2023-03-22T17:12:42.000Z,999.225048
2023-03-22T17:13:06.000Z,999.225048
2023-03-22T17:13:32.000Z,999.225048
2023-03-22T17:13:58.000Z,999.529824
2023-03-22T17:14:23.000Z,999.529824
2023-03-22T17:15:13.000Z,999.32664
2023-03-22T17:15:42.000Z,999.32664
2023-03-22T17:16:17.000Z,999.32664
2023-03-22T17:16:39.000Z,999.225048
2023-03-22T17:17:03.000Z,999.225048
2023-03-22T17:17:37.000Z,999.225048
2023-03-22T17:18:07.000Z,999.32664
2023-03-22T17:18:37.000Z,999.32664
2023-03-22T17:19:08.000Z,999.32664
2023-03-22T17:19:27.000Z,999.32664
2023-03-22T17:19:52.000Z,999.529824
2023-03-22T17:20:17.000Z,999.529824
2023-03-22T17:20:42.000Z,999.4282320000001
2023-03-22T17:21:04.000Z,999.4282320000001
2023-03-22T17:21:32.000Z,999.4282320000001
2023-03-22T17:21:58.000Z,999.4282320000001
2023-03-22T17:22:23.000Z,999.4282320000001
2023-03-22T17:22:47.000Z,999.32664
2023-03-22T17:23:12.000Z,999.32664
2023-03-22T17:23:37.000Z,999.225048
2023-03-22T17:23:57.000Z,999.225048
2023-03-22T17:24:32.000Z,999.225048
2023-03-22T17:25:02.000Z,999.123456
2023-03-22T17:25:37.000Z,999.123456
2023-03-22T17:26:07.000Z,999.32664
2023-03-22T17:26:37.000Z,999.32664
2023-03-22T17:27:12.000Z,999.32664
2023-03-22T17:27:42.000Z,999.225048
2023-03-22T17:28:17.000Z,999.225048
2023-03-22T17:28:38.000Z,999.32664
2023-03-22T17:29:02.000Z,999.32664
2023-03-22T17:29:37.000Z,999.32664
2023-03-22T17:30:17.000Z,999.4282320000001
2023-03-22T17:30:47.000Z,999.123456
2023-03-22T17:31:12.000Z,999.123456
2023-03-22T17:31:37.000Z,999.225048
2023-03-22T17:32:17.000Z,999.225048
2023-03-22T17:32:40.000Z,999.32664
2023-03-22T17:33:00.000Z,999.32664
2023-03-22T17:33:17.000Z,999.32664
2023-03-22T17:33:43.000Z,999.225048
2023-03-22T17:34:07.000Z,999.225048
2023-03-22T17:34:37.000Z,999.225048
2023-03-22T17:35:12.000Z,999.225048
2023-03-22T17:35:43.000Z,999.225048
2023-03-22T17:36:17.000Z,999.225048
2023-03-22T17:36:38.000Z,999.32664
2023-03-22T17:37:02.000Z,999.32664
2023-03-22T17:37:37.000Z,999.32664
2023-03-22T17:38:07.000Z,999.225048
2023-03-22T17:38:37.000Z,999.225048
2023-03-22T17:39:12.000Z,999.225048
2023-03-22T17:39:37.000Z,999.021864
2023-03-22T17:40:07.000Z,999.021864
2023-03-22T17:40:33.000Z,999.021864
2023-03-22T17:41:00.000Z,999.123456
2023-03-22T17:41:37.000Z,999.123456
2023-03-22T17:42:17.000Z,999.225048
2023-03-22T17:42:37.000Z,999.225048
2023-03-22T17:43:12.000Z,999.225048
2023-03-22T17:43:42.000Z,999.225048
2023-03-22T17:44:17.000Z,999.225048
2023-03-22T17:44:17.000Z,999.225048
2023-03-22T17:44:39.000Z,999.4282320000001
2023-03-22T17:44:39.000Z,999.4282320000001
2023-03-22T17:45:02.000Z,999.4282320000001
2023-03-22T17:45:02.000Z,999.4282320000001
2023-03-22T17:45:37.000Z,999.4282320000001
2023-03-22T17:45:37.000Z,999.4282320000001
2023-03-22T17:46:07.000Z,999.225048
2023-03-22T17:46:07.000Z,999.225048
2023-03-22T17:46:37.000Z,999.225048
2023-03-22T17:47:42.000Z,999.123456
2023-03-22T17:48:17.000Z,999.123456
2023-03-22T17:48:42.000Z,999.225048
2023-03-22T17:49:04.000Z,999.225048
2023-03-22T17:49:37.000Z,999.225048
2023-03-22T17:50:07.000Z,999.32664
2023-03-22T17:50:37.000Z,999.32664
2023-03-22T17:51:12.000Z,999.021864
2023-03-22T17:51:42.000Z,999.4282320000001
2023-03-22T17:52:17.000Z,999.4282320000001
2023-03-22T17:52:38.000Z,999.021864
2023-03-22T17:53:02.000Z,999.021864
2023-03-22T17:53:37.000Z,999.021864
2023-03-22T17:54:07.000Z,999.123456
2023-03-22T17:54:37.000Z,999.123456
2023-03-22T17:55:08.000Z,999.123456
2023-03-22T17:55:48.000Z,999.225048
2023-03-22T17:55:48.000Z,999.225048
2023-03-22T17:56:28.000Z,999.225048
2023-03-22T17:56:28.000Z,999.225048
2023-03-22T17:56:47.000Z,999.021864
2023-03-22T17:56:47.000Z,999.021864
2023-03-22T17:57:17.000Z,999.021864
2023-03-22T17:57:17.000Z,999.021864
2023-03-22T17:57:37.000Z,999.32664
2023-03-22T17:57:37.000Z,999.32664
2023-03-22T17:58:07.000Z,999.32664
2023-03-22T17:59:12.000Z,999.123456
2023-03-22T17:59:42.000Z,999.225048
2023-03-22T18:00:17.000Z,999.225048
2023-03-22T18:00:39.000Z,999.123456
2023-03-22T18:01:02.000Z,999.123456
2023-03-22T18:01:37.000Z,999.123456
2023-03-22T18:02:17.000Z,999.123456
2023-03-22T18:02:47.000Z,999.123456
2023-03-22T18:03:12.000Z,999.123456
2023-03-22T18:03:42.000Z,999.021864
2023-03-22T18:04:17.000Z,999.021864
2023-03-22T18:04:38.000Z,999.32664
2023-03-22T18:05:02.000Z,999.32664
2023-03-22T18:05:37.000Z,999.32664
2023-03-22T18:06:07.000Z,999.123456
2023-03-22T18:06:37.000Z,999.123456
2023-03-22T18:07:12.000Z,999.32664
2023-03-22T18:07:42.000Z,999.4282320000001
2023-03-22T18:08:17.000Z,999.4282320000001
2023-03-22T18:08:39.000Z,999.32664
2023-03-22T18:09:00.000Z,999.32664
2023-03-22T18:09:27.000Z,999.32664
2023-03-22T18:09:54.000Z,999.123456
2023-03-22T18:10:20.000Z,999.123456
2023-03-22T18:10:37.000Z,999.123456
2023-03-22T18:11:12.000Z,999.123456
2023-03-22T18:11:42.000Z,999.529824
2023-03-22T18:12:17.000Z,999.529824
2023-03-22T18:12:38.000Z,999.225048
2023-03-22T18:13:02.000Z,999.225048
2023-03-22T18:13:38.000Z,999.225048
2023-03-22T18:14:07.000Z,999.123456
2023-03-22T18:14:37.000Z,999.123456
2023-03-22T18:15:08.000Z,999.225048
2023-03-22T18:15:27.000Z,999.225048
2023-03-22T18:15:57.000Z,999.123456
2023-03-22T18:16:28.000Z,999.123456
2023-03-22T18:16:57.000Z,999.225048
2023-03-22T18:17:17.000Z,999.225048
2023-03-22T18:17:37.000Z,999.123456
2023-03-22T18:18:07.000Z,999.123456
2023-03-22T18:18:37.000Z,999.123456
2023-03-22T18:19:12.000Z,999.021864
2023-03-22T18:19:42.000Z,999.123456
2023-03-22T18:20:17.000Z,999.123456
2023-03-22T18:21:17.000Z,998.920272
2023-03-22T18:21:37.000Z,999.123456
2023-03-22T18:22:07.000Z,999.123456
2023-03-22T18:22:37.000Z,999.123456
2023-03-22T18:23:22.000Z,999.021864
2023-03-22T18:23:52.000Z,999.123456
2023-03-22T18:24:17.000Z,999.123456
2023-03-22T18:24:42.000Z,999.021864
2023-03-22T18:25:04.000Z,999.021864
2023-03-22T18:25:40.000Z,999.225048
2023-03-22T18:26:07.000Z,999.225048
2023-03-22T18:26:42.000Z,999.225048
2023-03-22T18:27:08.000Z,999.225048
2023-03-22T18:27:37.000Z,999.225048
2023-03-22T18:28:07.000Z,999.123456
2023-03-22T18:28:33.000Z,999.123456
2023-03-22T18:29:00.000Z,999.123456
2023-03-22T18:29:18.000Z,999.123456
2023-03-22T18:29:37.000Z,999.225048
2023-03-22T18:30:07.000Z,999.225048
2023-03-22T18:30:37.000Z,999.225048
2023-03-22T18:30:37.000Z,999.225048
2023-03-22T18:31:12.000Z,999.123456
2023-03-22T18:31:12.000Z,999.123456
2023-03-22T18:31:42.000Z,999.021864
2023-03-22T18:31:42.000Z,999.021864
2023-03-22T18:32:17.000Z,999.021864
2023-03-22T18:32:17.000Z,999.021864
2023-03-22T18:32:39.000Z,999.32664
2023-03-22T18:32:39.000Z,999.32664
2023-03-22T18:33:02.000Z,999.32664
2023-03-22T18:33:37.000Z,999.32664
2023-03-22T18:34:07.000Z,999.225048
2023-03-22T18:34:37.000Z,999.225048
2023-03-22T18:35:08.000Z,999.123456
2023-03-22T18:35:27.000Z,999.123456
2023-03-22T18:35:57.000Z,999.32664
2023-03-22T18:36:32.000Z,999.32664
2023-03-22T18:37:02.000Z,999.123456
2023-03-22T18:37:37.000Z,999.123456
2023-03-22T18:38:07.000Z,999.4282320000001
2023-03-22T18:38:37.000Z,999.4282320000001
2023-03-22T18:38:37.000Z,999.4282320000001
2023-03-22T18:39:12.000Z,999.021864
2023-03-22T18:39:12.000Z,999.021864
2023-03-22T18:39:42.000Z,999.123456
2023-03-22T18:39:42.000Z,999.123456
2023-03-22T18:40:18.000Z,999.123456
2023-03-22T18:40:18.000Z,999.123456
2023-03-22T18:40:39.000Z,999.225048
2023-03-22T18:40:39.000Z,999.225048
2023-03-22T18:41:02.000Z,999.225048
2023-03-22T18:42:07.000Z,999.225048
2023-03-22T18:42:47.000Z,999.225048
2023-03-22T18:43:12.000Z,999.225048
2023-03-22T18:43:37.000Z,999.32664
2023-03-22T18:44:07.000Z,999.32664
2023-03-22T18:44:33.000Z,999.32664
2023-03-22T18:45:00.000Z,999.4282320000001
2023-03-22T18:45:27.000Z,999.4282320000001
2023-03-22T18:45:53.000Z,999.225048
2023-03-22T18:46:20.000Z,999.225048
2023-03-22T18:46:47.000Z,999.123456
2023-03-22T18:47:12.000Z,999.123456
2023-03-22T18:47:37.000Z,999.32664
2023-03-22T18:47:57.000Z,999.32664
2023-03-22T18:48:32.000Z,999.32664
2023-03-22T18:49:02.000Z,999.123456
2023-03-22T18:49:37.000Z,999.123456
2023-03-22T18:50:07.000Z,999.225048
2023-03-22T18:50:37.000Z,999.225048
2023-03-22T18:51:12.000Z,999.225048
2023-03-22T18:51:42.000Z,999.225048
2023-03-22T18:52:17.000Z,999.225048
2023-03-22T18:52:39.000Z,999.123456